< < Back
Terminal Aerodrome Forecast


Current Version              Previous Versions:   1  2  3  4  5  6  7  8  9  

Terminal Aerodrome Forecast

071
FTUS44 KBMX 241732
TAFTCL
TAF
KTCL 241732Z 2418/2518 14010G16KT P6SM SCT029 BKN035 OVC045
      TEMPO 2418/2419 BKN029 BKN035 OVC045
     FM241900 14010G17KT P6SM VCSH BKN035 OVC050
      TEMPO 2419/2423 -SHRA
     FM250000 13009KT P6SM BKN060
     FM250800 15010KT P6SM OVC015=



Latest METAR

487
SAUS70 KWBC 241900 RRH
MTRTCL
METAR KTCL 241853Z 12011G17KT 8SM SCT034 29/21 A3014 RMK AO2 RAE1756
SLP204 P0000 T02940206


USA.gov is the U.S. government's official web portal to all federal, state and local government web resources and services.